Time;durP1;ratioP1;P1;durP2;ratioP2;P2;SDS_P1;SDS_P2;PMS_P1;PMS_P2;Temp;Humidity;BMP_temperature;BMP_pressure;BME280_temperature;BME280_humidity;BME280_pressure;Samples;Min_cycle;Max_cycle;Signal;HPM_P1;HPM_P2
2023/08/25 00:00:09;;;;;;;8.70;3.20;;;21.90;99.90;;;;;;4979761;28;20646;-74
2023/08/25 00:02:37;;;;;;;4.50;3.10;;;21.90;99.90;;;;;;4978546;28;20241;-74
2023/08/25 00:05:04;;;;;;;4.03;2.90;;;21.90;99.90;;;;;;4976302;28;20587;-74
2023/08/25 00:07:30;;;;;;;2.93;2.63;;;21.80;99.90;;;;;;4976767;28;20205;-74
2023/08/25 00:09:56;;;;;;;5.50;4.00;;;21.80;99.90;;;;;;4958180;28;20642;-74
2023/08/25 00:12:22;;;;;;;6.03;3.23;;;21.80;99.90;;;;;;4976771;28;20175;-74
2023/08/25 00:14:48;;;;;;;5.10;3.07;;;21.80;99.90;;;;;;4975374;28;20590;-74
2023/08/25 00:17:14;;;;;;;5.47;3.60;;;21.80;99.90;;;;;;4978075;28;20187;-74
2023/08/25 00:19:40;;;;;;;5.77;2.50;;;21.70;99.90;;;;;;4975422;28;20306;-74
2023/08/25 00:22:06;;;;;;;5.87;3.47;;;21.70;99.90;;;;;;4983951;28;20686;-74
2023/08/25 00:24:32;;;;;;;3.90;3.17;;;21.70;99.90;;;;;;4980442;28;20625;-74
2023/08/25 00:26:59;;;;;;;6.53;3.10;;;21.70;99.90;;;;;;4976753;28;20179;-74
2023/08/25 00:29:24;;;;;;;3.23;2.50;;;21.70;99.90;;;;;;4978545;28;20690;-74
2023/08/25 00:31:51;;;;;;;4.10;3.63;;;21.60;99.90;;;;;;4992484;28;20637;-74
2023/08/25 00:34:17;;;;;;;4.97;3.43;;;21.60;99.90;;;;;;4975388;28;20250;-74
2023/08/25 00:36:43;;;;;;;3.30;2.40;;;21.60;99.90;;;;;;5008190;28;20598;-74
2023/08/25 00:39:10;;;;;;;5.10;3.90;;;21.60;99.90;;;;;;4975413;28;20637;-74
2023/08/25 00:41:36;;;;;;;4.17;3.00;;;21.60;99.90;;;;;;4978377;28;21008;-74
2023/08/25 00:44:02;;;;;;;3.20;2.43;;;21.50;99.90;;;;;;4943060;28;20617;-74
2023/08/25 00:46:30;;;;;;;4.57;2.47;;;21.50;99.90;;;;;;4976137;28;20726;-74
2023/08/25 00:48:56;;;;;;;4.03;2.53;;;21.50;99.90;;;;;;4957488;28;21235;-74
2023/08/25 00:51:23;;;;;;;3.73;2.37;;;21.50;99.90;;;;;;4974312;28;20722;-74
2023/08/25 00:53:49;;;;;;;2.23;1.80;;;21.40;99.90;;;;;;4974957;28;20595;-74
2023/08/25 00:56:17;;;;;;;5.53;2.60;;;21.40;99.90;;;;;;4976859;28;20591;-74
2023/08/25 00:58:43;;;;;;;3.70;2.20;;;21.40;99.90;;;;;;5006738;28;20697;-74
2023/08/25 01:01:13;;;;;;;4.93;1.90;;;21.40;99.90;;;;;;4974769;28;20595;-75
2023/08/25 01:03:40;;;;;;;5.30;2.37;;;21.30;99.90;;;;;;4976233;28;21199;-74
2023/08/25 01:06:08;;;;;;;4.03;2.03;;;21.30;99.90;;;;;;4969081;28;20991;-74
2023/08/25 01:08:34;;;;;;;4.63;2.93;;;21.30;99.90;;;;;;4967480;28;20638;-74
2023/08/25 01:11:38;;;;;;;2.63;2.37;;;21.30;99.90;;;;;;4978484;28;21227;-74
2023/08/25 01:14:16;;;;;;;6.27;2.73;;;21.20;99.90;;;;;;4958110;28;20605;-74
2023/08/25 01:17:11;;;;;;;3.17;2.20;;;21.20;99.90;;;;;;4959670;28;20598;-74
2023/08/25 01:19:44;;;;;;;3.57;1.63;;;21.20;99.90;;;;;;4923234;28;1091053;-74
2023/08/25 01:22:16;;;;;;;3.97;1.77;;;21.30;99.90;;;;;;4976512;28;20183;-74
2023/08/25 01:24:48;;;;;;;3.80;2.03;;;21.30;99.90;;;;;;4957200;28;20610;-74
2023/08/25 01:27:14;;;;;;;4.60;1.80;;;21.30;99.90;;;;;;4975116;28;20713;-74
2023/08/25 01:29:45;;;;;;;3.30;2.00;;;21.30;99.90;;;;;;4975528;28;20692;-74
2023/08/25 01:32:11;;;;;;;2.57;1.50;;;21.30;99.90;;;;;;4977546;28;21235;-74
2023/08/25 01:34:37;;;;;;;5.33;1.43;;;21.30;99.90;;;;;;4942050;28;20614;-74
2023/08/25 01:37:25;;;;;;;2.90;1.37;;;21.30;99.90;;;;;;4976909;28;20265;-74
2023/08/25 01:39:54;;;;;;;3.60;1.70;;;21.30;99.90;;;;;;4976994;28;20631;-74
2023/08/25 01:42:22;;;;;;;2.33;1.30;;;21.30;99.90;;;;;;5011303;28;20599;-74
2023/08/25 01:44:51;;;;;;;2.87;1.20;;;21.30;99.90;;;;;;4944983;28;20613;-74
2023/08/25 01:47:22;;;;;;;3.20;1.63;;;21.30;99.90;;;;;;4975511;28;20601;-74
2023/08/25 01:49:48;;;;;;;4.53;1.67;;;21.30;99.90;;;;;;4973606;28;20654;-74
2023/08/25 01:52:20;;;;;;;1.77;1.13;;;21.20;99.90;;;;;;4990334;28;20674;-74
2023/08/25 01:54:48;;;;;;;3.43;1.73;;;21.20;99.90;;;;;;4975197;28;20833;-74
2023/08/25 01:57:14;;;;;;;4.67;2.00;;;21.10;99.90;;;;;;4980634;28;20611;-74
2023/08/25 01:59:39;;;;;;;4.90;2.13;;;21.20;99.90;;;;;;4974969;28;21232;-74
2023/08/25 02:02:06;;;;;;;2.67;1.50;;;21.10;99.90;;;;;;4976026;28;20650;-74
2023/08/25 02:04:32;;;;;;;5.83;1.63;;;21.10;99.90;;;;;;4976053;28;20210;-74
2023/08/25 02:06:58;;;;;;;3.97;1.90;;;21.10;99.90;;;;;;4943285;28;20716;-74
2023/08/25 02:09:23;;;;;;;4.60;1.30;;;21.10;99.90;;;;;;4975303;28;20897;-74
2023/08/25 02:11:49;;;;;;;4.07;1.83;;;21.10;99.90;;;;;;4974843;28;20234;-74
2023/08/25 02:14:17;;;;;;;3.50;1.93;;;21.10;99.90;;;;;;5007916;28;20195;-74
2023/08/25 02:16:43;;;;;;;3.70;1.90;;;21.20;99.90;;;;;;5007718;28;20669;-74
2023/08/25 02:19:09;;;;;;;3.43;1.80;;;21.20;99.90;;;;;;4978952;28;20658;-74
2023/08/25 02:21:35;;;;;;;3.83;2.00;;;21.20;99.90;;;;;;5007665;28;20622;-74
2023/08/25 02:24:00;;;;;;;2.60;1.40;;;21.20;99.90;;;;;;4955950;28;20210;-74
2023/08/25 02:26:26;;;;;;;4.67;1.87;;;21.20;99.90;;;;;;4974648;28;20716;-74
2023/08/25 02:28:53;;;;;;;3.33;2.20;;;21.20;99.90;;;;;;4976125;28;20552;-74
2023/08/25 02:31:19;;;;;;;4.43;1.90;;;21.20;99.90;;;;;;4975632;28;20610;-74
2023/08/25 02:33:45;;;;;;;3.30;1.93;;;21.20;99.90;;;;;;4973265;28;20175;-74
2023/08/25 02:36:11;;;;;;;3.07;1.70;;;21.20;99.90;;;;;;4957952;28;20624;-74
2023/08/25 02:38:36;;;;;;;3.60;1.80;;;21.20;99.90;;;;;;4974595;28;20818;-74
2023/08/25 02:41:02;;;;;;;7.20;2.10;;;21.20;99.90;;;;;;4959689;28;20551;-74
2023/08/25 02:43:28;;;;;;;3.27;2.30;;;21.10;99.90;;;;;;4976194;28;20185;-74
2023/08/25 02:45:58;;;;;;;5.67;1.90;;;21.20;99.90;;;;;;4973831;28;20179;-74
2023/08/25 02:48:25;;;;;;;4.67;1.50;;;21.20;99.90;;;;;;4977458;28;20214;-74
2023/08/25 02:50:51;;;;;;;2.93;1.43;;;21.20;99.90;;;;;;4974088;28;20962;-74
2023/08/25 02:53:17;;;;;;;6.30;1.60;;;21.20;99.90;;;;;;4962593;28;20183;-74
2023/08/25 02:55:42;;;;;;;2.73;1.50;;;21.10;99.90;;;;;;4981769;28;20176;-74
2023/08/25 02:58:08;;;;;;;4.20;1.90;;;21.10;99.90;;;;;;4976838;28;20692;-74
2023/08/25 03:00:34;;;;;;;4.07;2.03;;;21.10;99.90;;;;;;4973330;28;20194;-74
2023/08/25 03:02:59;;;;;;;5.30;2.03;;;21.10;99.90;;;;;;4975040;28;20176;-74
2023/08/25 03:05:25;;;;;;;2.90;2.07;;;21.10;99.90;;;;;;4942566;28;20194;-74
2023/08/25 03:07:53;;;;;;;3.43;2.10;;;21.00;99.90;;;;;;4974738;28;20187;-74
2023/08/25 03:10:19;;;;;;;4.10;2.30;;;21.00;99.90;;;;;;4982674;28;22353;-74
2023/08/25 03:12:45;;;;;;;3.93;1.97;;;21.00;99.90;;;;;;4999046;23;20704;-76
2023/08/25 03:15:11;;;;;;;2.43;1.80;;;21.00;99.90;;;;;;5000835;28;20578;-77
2023/08/25 03:17:37;;;;;;;5.20;2.30;;;21.00;99.90;;;;;;5022241;28;20604;-76
2023/08/25 03:20:04;;;;;;;2.70;2.10;;;21.00;99.90;;;;;;4989951;28;20625;-77
2023/08/25 03:22:30;;;;;;;3.13;2.00;;;21.00;99.90;;;;;;4988200;28;20271;-77
2023/08/25 03:24:57;;;;;;;5.13;1.90;;;21.00;99.90;;;;;;4995999;28;21155;-77
2023/08/25 03:27:23;;;;;;;2.80;1.70;;;21.00;99.90;;;;;;4982008;28;20587;-76
2023/08/25 03:29:48;;;;;;;3.43;1.67;;;20.90;99.90;;;;;;5002678;28;20234;-77
2023/08/25 03:32:14;;;;;;;2.87;1.80;;;21.00;99.90;;;;;;4988498;28;20219;-76
2023/08/25 03:34:40;;;;;;;3.70;1.87;;;21.00;99.90;;;;;;4970653;28;20184;-76
2023/08/25 03:37:07;;;;;;;6.53;3.30;;;21.00;99.90;;;;;;4984698;28;20272;-76
2023/08/25 03:39:32;;;;;;;3.53;1.70;;;21.00;99.90;;;;;;4982740;28;20196;-76
2023/08/25 03:41:58;;;;;;;3.70;2.90;;;21.00;99.90;;;;;;4966191;28;20730;-76
2023/08/25 03:44:24;;;;;;;3.57;1.43;;;21.00;99.90;;;;;;4965816;28;20683;-76
2023/08/25 03:46:50;;;;;;;2.20;2.00;;;21.00;99.90;;;;;;4983495;28;20183;-76
2023/08/25 03:49:17;;;;;;;3.70;2.33;;;21.00;99.90;;;;;;4975890;28;20211;-76
2023/08/25 03:51:42;;;;;;;3.70;2.40;;;21.00;99.90;;;;;;4963746;28;20705;-75
2023/08/25 03:54:11;;;;;;;3.10;1.97;;;21.00;99.90;;;;;;4964907;28;20194;-76
2023/08/25 03:56:38;;;;;;;3.50;1.67;;;21.10;99.90;;;;;;4946350;28;20650;-76
2023/08/25 03:59:03;;;;;;;3.13;1.80;;;21.10;99.90;;;;;;4954370;28;20607;-76
2023/08/25 04:01:29;;;;;;;3.57;2.60;;;21.10;99.90;;;;;;4967264;28;20618;-76
2023/08/25 04:03:54;;;;;;;2.30;1.60;;;21.20;99.90;;;;;;4946999;28;20231;-75
2023/08/25 04:06:20;;;;;;;3.77;2.40;;;21.10;99.90;;;;;;4968730;28;20203;-76
2023/08/25 04:08:46;;;;;;;3.33;2.13;;;21.20;99.90;;;;;;4982750;28;20655;-76
2023/08/25 04:11:12;;;;;;;3.90;2.43;;;21.10;99.90;;;;;;4982712;28;20186;-76
2023/08/25 04:13:37;;;;;;;3.90;2.30;;;21.10;99.90;;;;;;4967467;28;20624;-75
2023/08/25 04:16:04;;;;;;;3.47;2.43;;;21.10;99.90;;;;;;4966791;28;20199;-75
2023/08/25 04:18:30;;;;;;;4.83;2.23;;;21.10;99.90;;;;;;4969747;28;20209;-76
2023/08/25 04:20:56;;;;;;;4.10;2.40;;;21.10;99.90;;;;;;4957828;28;20771;-76
2023/08/25 04:23:24;;;;;;;7.10;2.90;;;21.10;99.90;;;;;;4971314;28;20760;-76
2023/08/25 04:25:50;;;;;;;4.03;2.53;;;21.10;99.90;;;;;;4971388;28;20218;-76
2023/08/25 04:28:16;;;;;;;6.20;2.73;;;21.20;99.90;;;;;;4969536;28;20640;-76
2023/08/25 04:30:43;;;;;;;3.17;2.23;;;21.20;99.90;;;;;;4951391;28;21239;-76
2023/08/25 04:33:20;;;;;;;2.90;1.97;;;21.20;99.90;;;;;;4956438;28;20638;-75
2023/08/25 04:35:46;;;;;;;3.63;2.23;;;21.30;99.90;;;;;;4988704;28;20594;-76
2023/08/25 04:38:12;;;;;;;3.53;2.10;;;21.30;99.90;;;;;;4959103;28;20198;-76
2023/08/25 04:40:38;;;;;;;3.10;2.63;;;21.30;99.90;;;;;;4974356;28;21456;-76
2023/08/25 04:43:05;;;;;;;4.80;2.30;;;21.30;99.90;;;;;;4974588;28;20207;-76
2023/08/25 04:45:31;;;;;;;3.10;2.37;;;21.30;99.90;;;;;;4988063;28;20283;-76
2023/08/25 04:47:57;;;;;;;4.57;2.90;;;21.30;99.90;;;;;;4956217;28;20619;-77
2023/08/25 04:50:24;;;;;;;3.20;2.33;;;21.30;99.90;;;;;;4960037;28;20598;-77
2023/08/25 04:52:50;;;;;;;4.40;3.07;;;21.30;99.90;;;;;;4972059;28;20635;-77
2023/08/25 04:55:18;;;;;;;4.57;2.83;;;21.30;99.90;;;;;;4975752;28;20602;-77
2023/08/25 04:57:45;;;;;;;5.80;3.50;;;21.30;99.90;;;;;;4958741;28;20603;-77
2023/08/25 05:00:11;;;;;;;4.17;3.40;;;21.20;99.90;;;;;;4978339;28;20190;-77
2023/08/25 05:02:37;;;;;;;5.00;3.50;;;21.20;99.90;;;;;;4960264;28;20642;-77
2023/08/25 05:05:07;;;;;;;3.43;3.00;;;21.20;99.90;;;;;;4974981;28;20683;-77
2023/08/25 05:07:34;;;;;;;5.10;3.70;;;21.20;99.90;;;;;;4967476;28;20183;-77
2023/08/25 05:10:00;;;;;;;4.80;4.03;;;21.20;99.90;;;;;;4954571;28;20641;-77
2023/08/25 05:12:28;;;;;;;5.83;3.23;;;21.10;99.90;;;;;;4946963;28;20642;-75
2023/08/25 05:14:55;;;;;;;5.63;4.03;;;21.20;99.90;;;;;;4968526;28;21361;-75
2023/08/25 05:17:22;;;;;;;4.63;4.23;;;21.20;99.90;;;;;;4979895;28;20615;-75
2023/08/25 05:19:50;;;;;;;5.27;4.77;;;21.20;99.90;;;;;;4946716;29;20699;-75
2023/08/25 05:22:17;;;;;;;7.70;4.40;;;21.20;99.90;;;;;;4949530;28;20623;-75
2023/08/25 05:24:42;;;;;;;4.87;4.47;;;21.20;99.90;;;;;;4946361;28;20614;-76
2023/08/25 05:27:09;;;;;;;4.10;3.47;;;21.20;99.90;;;;;;4973046;28;20311;-75
2023/08/25 05:29:35;;;;;;;5.10;4.70;;;21.30;99.90;;;;;;4954594;28;20650;-76
2023/08/25 05:32:10;;;;;;;5.40;3.80;;;21.30;99.90;;;;;;4965424;28;20720;-76
2023/08/25 05:34:59;;;;;;;5.23;3.90;;;21.30;99.90;;;;;;4930900;28;20615;-75
2023/08/25 05:37:26;;;;;;;5.67;4.40;;;21.30;99.90;;;;;;4963901;28;20730;-75
2023/08/25 05:39:52;;;;;;;9.20;6.30;;;21.40;99.90;;;;;;4945087;28;20676;-76
2023/08/25 05:42:18;;;;;;;6.30;4.90;;;21.40;99.90;;;;;;4947494;28;20244;-75
2023/08/25 05:44:44;;;;;;;5.83;4.60;;;21.40;99.90;;;;;;4970053;28;20607;-76
2023/08/25 05:47:09;;;;;;;7.63;5.10;;;21.50;99.90;;;;;;4968098;28;20270;-75
2023/08/25 05:49:35;;;;;;;5.83;5.33;;;21.50;99.90;;;;;;4966351;28;20218;-74
2023/08/25 05:52:03;;;;;;;8.67;5.43;;;21.60;99.90;;;;;;4947004;28;20227;-75
2023/08/25 05:54:28;;;;;;;4.53;3.90;;;21.70;99.90;;;;;;4966021;28;20616;-74
2023/08/25 05:56:54;;;;;;;5.40;3.90;;;21.70;99.90;;;;;;4960311;28;20630;-74
2023/08/25 05:59:20;;;;;;;4.63;3.87;;;21.80;99.90;;;;;;4944544;28;20569;-74
2023/08/25 06:01:46;;;;;;;4.90;3.97;;;21.90;99.90;;;;;;4965753;28;20642;-74
2023/08/25 06:04:11;;;;;;;5.23;4.73;;;22.00;99.90;;;;;;4951952;28;20191;-75
2023/08/25 06:06:38;;;;;;;7.00;4.40;;;22.10;99.90;;;;;;4988467;28;20234;-74
2023/08/25 06:09:05;;;;;;;7.30;4.70;;;22.20;99.90;;;;;;4969737;28;20206;-74
2023/08/25 06:11:30;;;;;;;7.40;4.70;;;22.30;99.90;;;;;;4936725;28;20599;-75
2023/08/25 06:13:56;;;;;;;5.47;4.77;;;22.40;99.90;;;;;;4978860;28;20614;-75
2023/08/25 06:16:23;;;;;;;8.40;4.10;;;22.40;99.90;;;;;;4969506;28;20238;-74
2023/08/25 06:18:48;;;;;;;4.80;4.40;;;22.40;99.90;;;;;;4969844;28;20183;-74
2023/08/25 06:21:14;;;;;;;5.20;4.30;;;22.50;99.90;;;;;;4946261;28;20661;-74
2023/08/25 06:23:40;;;;;;;5.47;4.97;;;22.50;99.90;;;;;;4962461;28;20208;-75
2023/08/25 06:26:06;;;;;;;5.27;4.23;;;22.60;99.90;;;;;;4950705;28;20271;-75
2023/08/25 06:28:33;;;;;;;5.30;3.93;;;22.70;99.90;;;;;;4962856;28;20208;-75
2023/08/25 06:30:59;;;;;;;6.50;4.20;;;22.60;99.90;;;;;;4983879;28;20657;-75
2023/08/25 06:33:29;;;;;;;5.13;3.83;;;22.60;99.90;;;;;;4969081;28;20622;-75
2023/08/25 06:35:56;;;;;;;6.90;4.43;;;22.60;99.90;;;;;;4954803;28;20614;-75
2023/08/25 06:38:23;;;;;;;5.17;3.33;;;22.50;99.90;;;;;;4966994;28;20639;-75
2023/08/25 06:40:50;;;;;;;5.10;3.97;;;22.60;99.90;;;;;;4961956;28;20600;-75
2023/08/25 06:43:16;;;;;;;5.40;4.60;;;22.50;99.90;;;;;;4957310;28;20632;-74
2023/08/25 06:45:42;;;;;;;4.33;3.93;;;22.50;99.90;;;;;;4964164;28;20596;-74
2023/08/25 06:48:07;;;;;;;4.30;3.50;;;22.50;99.90;;;;;;4971631;28;20246;-74
2023/08/25 06:50:33;;;;;;;4.30;3.60;;;22.50;99.90;;;;;;4970514;28;20222;-75
2023/08/25 06:53:00;;;;;;;4.73;4.03;;;22.50;99.90;;;;;;4974714;28;20192;-76
2023/08/25 06:55:26;;;;;;;5.30;4.20;;;22.50;99.90;;;;;;4974407;28;20179;-76
2023/08/25 06:57:51;;;;;;;6.77;3.77;;;22.50;99.90;;;;;;4969110;28;20686;-77
2023/08/25 07:00:18;;;;;;;4.70;4.30;;;22.50;99.90;;;;;;4970116;28;20599;-75
2023/08/25 07:02:44;;;;;;;4.10;3.60;;;22.40;99.90;;;;;;4969869;28;20211;-76
2023/08/25 07:05:11;;;;;;;6.40;5.17;;;22.50;99.90;;;;;;4968147;28;20602;-75
2023/08/25 07:07:37;;;;;;;5.20;4.20;;;22.60;99.90;;;;;;4971543;28;20606;-74
2023/08/25 07:10:04;;;;;;;5.20;4.20;;;22.70;99.90;;;;;;4967321;28;20639;-74
2023/08/25 07:12:30;;;;;;;3.93;3.63;;;22.90;99.90;;;;;;4979246;28;20212;-75
2023/08/25 07:14:56;;;;;;;4.33;3.90;;;22.90;99.90;;;;;;4968753;28;20588;-74
2023/08/25 07:17:22;;;;;;;4.73;4.07;;;23.00;99.90;;;;;;4969196;28;20606;-75
2023/08/25 07:19:48;;;;;;;5.30;4.40;;;23.00;99.90;;;;;;4964442;28;20222;-74
2023/08/25 07:22:14;;;;;;;3.97;3.67;;;23.00;99.90;;;;;;4972427;28;20196;-75
2023/08/25 07:24:39;;;;;;;7.80;4.83;;;23.00;99.90;;;;;;4982089;28;20677;-75
2023/08/25 07:27:05;;;;;;;4.73;3.90;;;23.00;99.90;;;;;;4967858;28;20184;-75
2023/08/25 07:29:34;;;;;;;3.60;3.30;;;22.90;99.90;;;;;;4968894;28;20222;-75
2023/08/25 07:32:00;;;;;;;4.20;3.77;;;22.80;99.90;;;;;;4985951;28;20199;-75
2023/08/25 07:34:26;;;;;;;4.40;3.57;;;22.80;99.90;;;;;;4971186;28;20650;-75
2023/08/25 07:36:53;;;;;;;3.70;3.40;;;22.80;99.90;;;;;;4963194;28;20785;-75
2023/08/25 07:39:19;;;;;;;4.93;4.53;;;22.90;99.90;;;;;;4978869;28;20636;-75
2023/08/25 07:41:45;;;;;;;3.73;3.43;;;23.00;99.90;;;;;;4955368;28;21294;-75
2023/08/25 07:44:11;;;;;;;4.47;3.80;;;23.10;99.90;;;;;;4971982;28;20693;-75
2023/08/25 07:46:38;;;;;;;3.77;3.37;;;23.30;99.90;;;;;;4961892;28;20654;-75
2023/08/25 07:49:06;;;;;;;4.50;3.20;;;23.50;99.90;;;;;;4964688;28;20570;-75
2023/08/25 07:51:32;;;;;;;7.80;3.47;;;23.60;99.90;;;;;;4961974;28;20603;-75
2023/08/25 07:53:58;;;;;;;4.60;3.70;;;23.70;99.90;;;;;;4967127;28;20592;-76
2023/08/25 07:56:23;;;;;;;7.10;3.40;;;23.80;99.90;;;;;;4970256;28;20183;-75
2023/08/25 07:58:51;;;;;;;3.87;3.00;;;23.90;99.90;;;;;;4960849;28;20199;-76
2023/08/25 08:01:17;;;;;;;5.40;3.50;;;24.00;99.90;;;;;;4967407;28;20588;-75
2023/08/25 08:03:43;;;;;;;4.00;3.00;;;24.10;99.90;;;;;;4971970;28;20258;-75
2023/08/25 08:06:09;;;;;;;4.33;2.90;;;24.20;99.90;;;;;;4958981;28;20603;-75
2023/08/25 08:08:34;;;;;;;3.90;2.70;;;24.20;99.90;;;;;;4966599;28;20242;-75
2023/08/25 08:11:00;;;;;;;3.47;2.70;;;24.20;99.90;;;;;;4973275;28;20175;-75
2023/08/25 08:13:27;;;;;;;2.80;2.60;;;24.30;99.90;;;;;;4962177;28;20259;-76
2023/08/25 08:15:52;;;;;;;4.07;2.97;;;24.30;99.90;;;;;;4984475;28;20972;-75
2023/08/25 08:18:18;;;;;;;3.00;2.70;;;24.30;99.90;;;;;;4971116;28;20188;-75
2023/08/25 08:20:44;;;;;;;3.73;3.00;;;24.20;99.90;;;;;;4987242;28;20168;-75
2023/08/25 08:23:10;;;;;;;3.40;2.63;;;24.20;99.90;;;;;;4972946;28;20253;-74
2023/08/25 08:25:36;;;;;;;6.50;3.80;;;24.20;99.90;;;;;;4966019;28;21218;-76
2023/08/25 08:28:02;;;;;;;7.40;4.10;;;24.00;99.90;;;;;;4970678;28;20702;-76
2023/08/25 08:30:28;;;;;;;8.80;4.20;;;23.80;99.90;;;;;;4981701;28;20599;-75
2023/08/25 08:32:54;;;;;;;7.57;3.73;;;23.40;99.90;;;;;;4969865;28;20667;-74
2023/08/25 08:35:19;;;;;;;4.00;3.60;;;23.10;99.90;;;;;;4958734;28;20588;-74
2023/08/25 08:37:45;;;;;;;4.53;4.13;;;22.80;99.90;;;;;;4966022;28;20331;-74
2023/08/25 08:40:12;;;;;;;5.73;3.03;;;22.60;99.90;;;;;;4967243;28;20237;-74
2023/08/25 08:42:39;;;;;;;6.43;4.30;;;22.40;99.90;;;;;;4970222;28;20227;-74
2023/08/25 08:45:09;;;;;;;8.07;3.80;;;22.20;99.90;;;;;;4968657;28;20604;-74
2023/08/25 08:47:36;;;;;;;4.50;3.87;;;22.10;99.90;;;;;;4967848;28;20698;-74
2023/08/25 08:50:09;;;;;;;6.90;4.03;;;21.90;99.90;;;;;;4959865;28;20662;-74
2023/08/25 08:52:35;;;;;;;9.23;3.80;;;21.90;99.90;;;;;;4959661;28;20635;-75
2023/08/25 08:55:01;;;;;;;6.50;3.90;;;21.90;99.90;;;;;;4968154;28;20591;-76
2023/08/25 08:57:29;;;;;;;9.27;5.67;;;21.80;99.90;;;;;;4970089;28;20947;-75
2023/08/25 09:00:02;;;;;;;7.70;4.80;;;21.80;99.90;;;;;;4968139;28;20689;-75
2023/08/25 09:02:28;;;;;;;7.87;5.07;;;21.80;99.90;;;;;;4964657;28;20199;-75
2023/08/25 09:05:00;;;;;;;7.53;4.40;;;22.00;99.90;;;;;;4965702;28;21152;-76
2023/08/25 09:07:30;;;;;;;7.20;5.90;;;22.30;99.90;;;;;;4957695;28;21176;-76
2023/08/25 09:09:57;;;;;;;12.03;7.13;;;22.70;99.90;;;;;;4963699;28;21257;-77
2023/08/25 09:12:23;;;;;;;10.30;6.43;;;23.20;99.90;;;;;;4965535;28;20694;-75
2023/08/25 09:14:49;;;;;;;6.40;5.80;;;23.80;99.90;;;;;;4961465;28;20603;-74
2023/08/25 09:17:15;;;;;;;6.13;5.13;;;24.20;99.90;;;;;;4968129;28;20634;-76
2023/08/25 09:19:42;;;;;;;6.07;4.50;;;24.70;99.90;;;;;;4965323;28;20652;-76
2023/08/25 09:22:14;;;;;;;6.83;5.60;;;25.20;99.90;;;;;;4974434;28;20628;-76
2023/08/25 09:24:42;;;;;;;4.30;3.90;;;25.60;99.90;;;;;;4962434;28;20639;-76
2023/08/25 09:27:22;;;;;;;5.97;4.47;;;25.80;99.90;;;;;;4972063;28;20600;-76
2023/08/25 09:29:48;;;;;;;5.73;3.80;;;26.10;99.90;;;;;;4970945;28;21439;-75
2023/08/25 09:32:14;;;;;;;5.90;3.60;;;26.30;99.90;;;;;;4969221;28;20619;-76
2023/08/25 09:34:41;;;;;;;5.23;3.70;;;26.30;99.90;;;;;;4973052;28;20295;-78
2023/08/25 09:37:07;;;;;;;6.07;4.60;;;26.20;99.90;;;;;;4965215;28;20603;-77
2023/08/25 09:39:43;;;;;;;5.80;4.30;;;26.00;99.90;;;;;;4957707;28;20884;-76
2023/08/25 09:42:08;;;;;;;5.73;3.40;;;25.90;99.90;;;;;;4961059;28;20281;-75
2023/08/25 09:44:34;;;;;;;4.37;3.70;;;25.80;99.90;;;;;;4962897;28;21011;-77
2023/08/25 09:47:01;;;;;;;4.00;3.67;;;25.50;99.90;;;;;;4960574;28;20232;-78
2023/08/25 09:49:38;;;;;;;4.80;4.30;;;25.30;99.90;;;;;;4963575;28;20262;-78
2023/08/25 09:52:05;;;;;;;5.20;4.70;;;25.20;99.90;;;;;;4961848;28;20631;-77
2023/08/25 09:54:32;;;;;;;4.80;4.10;;;25.00;99.90;;;;;;4975054;28;20627;-77
2023/08/25 09:56:59;;;;;;;7.43;4.20;;;24.90;99.90;;;;;;4965903;28;20611;-77
2023/08/25 09:59:25;;;;;;;7.03;5.33;;;24.80;99.90;;;;;;4963333;28;20634;-78
2023/08/25 10:01:51;;;;;;;6.53;5.20;;;24.70;99.90;;;;;;4974104;28;20619;-78
2023/08/25 10:04:17;;;;;;;6.77;5.50;;;24.50;99.90;;;;;;4963198;28;20614;-78
2023/08/25 10:06:43;;;;;;;4.97;4.43;;;24.40;99.90;;;;;;4966572;28;20603;-78
2023/08/25 10:09:09;;;;;;;6.10;4.97;;;24.30;99.90;;;;;;4950231;28;20654;-79
2023/08/25 10:11:40;;;;;;;5.70;5.20;;;24.30;99.90;;;;;;4962205;28;20187;-77
2023/08/25 10:14:11;;;;;;;11.30;5.30;;;24.30;99.90;;;;;;4961541;28;20607;-77
2023/08/25 10:16:50;;;;;;;4.60;4.20;;;24.30;99.90;;;;;;4986952;28;21108;-77
2023/08/25 10:19:23;;;;;;;4.93;4.40;;;24.30;99.90;;;;;;4966730;28;21243;-77
2023/08/25 10:21:51;;;;;;;6.60;5.67;;;24.20;99.90;;;;;;4971590;28;20638;-78
2023/08/25 10:24:21;;;;;;;5.00;4.30;;;24.20;99.90;;;;;;4975357;28;22321;-79
2023/08/25 10:26:51;;;;;;;6.30;5.70;;;24.10;99.90;;;;;;4975170;28;20618;-79
2023/08/25 10:29:20;;;;;;;6.07;4.77;;;24.00;99.90;;;;;;4975013;28;20630;-79
2023/08/25 10:32:02;;;;;;;5.80;4.93;;;23.90;99.90;;;;;;4967331;28;20705;-76
2023/08/25 10:34:42;;;;;;;6.27;5.67;;;23.80;99.90;;;;;;4971638;28;20599;-77
2023/08/25 10:37:25;;;;;;;5.40;4.90;;;23.70;99.90;;;;;;4951990;28;20604;-78
2023/08/25 10:40:06;;;;;;;6.13;5.40;;;23.70;99.90;;;;;;4975341;28;20637;-78
2023/08/25 10:42:33;;;;;;;6.27;5.60;;;23.60;99.90;;;;;;4973938;28;20731;-77
2023/08/25 10:45:06;;;;;;;6.37;5.87;;;23.60;99.90;;;;;;4979003;28;20610;-78
2023/08/25 10:47:32;;;;;;;5.60;5.10;;;23.50;99.90;;;;;;4976847;28;20633;-77
2023/08/25 10:50:03;;;;;;;7.50;5.10;;;23.50;99.90;;;;;;4972802;28;20653;-78
2023/08/25 10:52:29;;;;;;;7.03;5.10;;;23.50;99.90;;;;;;4975226;28;20652;-78
2023/08/25 10:55:17;;;;;;;6.60;5.90;;;23.50;99.90;;;;;;4974736;28;20623;-77
2023/08/25 10:57:44;;;;;;;5.50;4.93;;;23.50;99.90;;;;;;4965515;28;20607;-77
2023/08/25 11:00:30;;;;;;;5.93;5.40;;;23.40;99.90;;;;;;4972483;28;20666;-78
2023/08/25 11:02:57;;;;;;;5.30;4.37;;;23.30;99.90;;;;;;4966260;28;21061;-75
2023/08/25 11:05:29;;;;;;;5.03;4.20;;;23.20;99.90;;;;;;4979091;28;20607;-74
2023/08/25 11:08:04;;;;;;;8.20;4.03;;;23.20;99.90;;;;;;4938679;28;20702;-79
2023/08/25 11:10:35;;;;;;;5.67;4.13;;;23.10;99.90;;;;;;4964468;28;20610;-79
2023/08/25 11:13:07;;;;;;;4.00;3.60;;;23.00;99.90;;;;;;4981027;28;21332;-78
2023/08/25 11:15:39;;;;;;;4.50;3.97;;;23.00;99.90;;;;;;4972036;28;20606;-78
2023/08/25 11:18:05;;;;;;;7.13;4.27;;;22.90;99.90;;;;;;4964640;28;20622;-80
2023/08/25 11:20:34;;;;;;;4.10;3.43;;;22.90;99.90;;;;;;4964970;28;20711;-75
2023/08/25 11:23:03;;;;;;;4.90;4.13;;;22.90;99.90;;;;;;4972186;28;20636;-77
2023/08/25 11:25:32;;;;;;;4.40;4.00;;;23.00;99.90;;;;;;4979948;28;20603;-74
2023/08/25 11:28:02;;;;;;;5.03;4.53;;;23.00;99.90;;;;;;4978644;28;20611;-75
2023/08/25 11:30:28;;;;;;;5.17;3.80;;;23.10;99.90;;;;;;4969181;28;20703;-78
2023/08/25 11:32:57;;;;;;;5.67;5.10;;;23.20;99.90;;;;;;4981104;28;20634;-78
2023/08/25 11:35:23;;;;;;;4.50;4.10;;;23.20;99.90;;;;;;4986975;28;20603;-74
2023/08/25 11:37:51;;;;;;;5.80;4.93;;;23.20;99.90;;;;;;4979153;28;20591;-78
2023/08/25 11:40:30;;;;;;;7.10;5.23;;;23.10;99.90;;;;;;4973766;28;20191;-79
2023/08/25 11:42:56;;;;;;;6.80;5.23;;;23.10;99.90;;;;;;4987530;28;20734;-79
2023/08/25 11:45:22;;;;;;;5.70;4.00;;;23.10;99.90;;;;;;4972299;28;20603;-79
2023/08/25 11:47:48;;;;;;;4.70;4.23;;;23.00;99.90;;;;;;4963664;28;20685;-80
2023/08/25 11:50:23;;;;;;;4.93;4.43;;;22.90;99.90;;;;;;4982260;28;20223;-75
2023/08/25 11:52:54;;;;;;;6.70;5.70;;;22.90;99.90;;;;;;4980010;28;20211;-77
2023/08/25 11:55:32;;;;;;;5.43;4.10;;;22.80;99.90;;;;;;4986584;28;20629;-74
2023/08/25 11:57:57;;;;;;;6.30;5.00;;;22.80;99.90;;;;;;4965832;28;20627;-79
2023/08/25 12:00:23;;;;;;;7.10;4.93;;;22.90;99.90;;;;;;4949079;28;20636;-74
2023/08/25 12:02:58;;;;;;;6.10;4.50;;;23.00;99.90;;;;;;4966632;28;20199;-79
2023/08/25 12:05:32;;;;;;;6.17;4.63;;;23.10;99.90;;;;;;4980824;28;20207;-79
2023/08/25 12:08:02;;;;;;;5.87;5.27;;;23.30;99.90;;;;;;4966552;28;20594;-80
2023/08/25 12:10:32;;;;;;;7.60;5.40;;;23.40;99.90;;;;;;4967592;28;20599;-80
2023/08/25 12:12:59;;;;;;;6.90;5.60;;;23.50;99.90;;;;;;4965566;28;20999;-79
2023/08/25 12:15:24;;;;;;;6.93;5.70;;;23.50;99.90;;;;;;4970671;28;20602;-77
2023/08/25 12:17:58;;;;;;;5.43;4.93;;;23.50;99.90;;;;;;4979116;28;20703;-78
2023/08/25 12:20:24;;;;;;;9.13;6.37;;;23.40;99.90;;;;;;4993644;28;20187;-75
2023/08/25 12:23:02;;;;;;;7.17;6.47;;;23.40;99.90;;;;;;4981679;28;20784;-74
2023/08/25 12:25:30;;;;;;;7.90;7.10;;;23.30;99.90;;;;;;4977691;28;20184;-77
2023/08/25 12:27:59;;;;;;;7.67;7.07;;;23.30;99.90;;;;;;4967647;28;20584;-80
2023/08/25 12:30:25;;;;;;;8.03;7.33;;;23.30;99.90;;;;;;4968322;28;21181;-76
2023/08/25 12:32:52;;;;;;;8.70;7.73;;;23.40;99.90;;;;;;4982359;28;20627;-75
2023/08/25 12:35:19;;;;;;;11.87;6.70;;;23.50;99.90;;;;;;4965051;28;20600;-76
2023/08/25 12:37:44;;;;;;;7.70;6.90;;;23.50;99.90;;;;;;4965770;28;20262;-77
2023/08/25 12:40:10;;;;;;;6.87;6.27;;;23.50;99.90;;;;;;4965153;28;21184;-76
2023/08/25 12:42:39;;;;;;;6.60;6.00;;;23.60;99.90;;;;;;4970660;28;20208;-79
2023/08/25 12:45:06;;;;;;;6.37;5.77;;;23.60;99.90;;;;;;4966087;28;20603;-75
2023/08/25 12:47:31;;;;;;;7.67;7.07;;;23.60;99.90;;;;;;4965228;28;20611;-74